sensor_id;sensor_type;location;lat;lon;timestamp;P1;durP1;ratioP1;P2;durP2;ratioP2
19842;SDS011;10082;51.038;6.992;2023-05-10T00:00:26;15.52;;;13.38;;
19842;SDS011;10082;51.038;6.992;2023-05-10T00:02:55;18.23;;;14.43;;
19842;SDS011;10082;51.038;6.992;2023-05-10T00:05:22;14.63;;;13.07;;
19842;SDS011;10082;51.038;6.992;2023-05-10T00:07:49;15.50;;;13.43;;
19842;SDS011;10082;51.038;6.992;2023-05-10T00:10:17;17.13;;;14.77;;
19842;SDS011;10082;51.038;6.992;2023-05-10T00:12:45;17.95;;;15.15;;
19842;SDS011;10082;51.038;6.992;2023-05-10T00:15:12;16.85;;;14.52;;
19842;SDS011;10082;51.038;6.992;2023-05-10T00:17:39;17.27;;;14.70;;
19842;SDS011;10082;51.038;6.992;2023-05-10T00:20:08;17.60;;;14.82;;
19842;SDS011;10082;51.038;6.992;2023-05-10T00:22:36;18.45;;;15.10;;
19842;SDS011;10082;51.038;6.992;2023-05-10T00:25:04;17.77;;;14.27;;
19842;SDS011;10082;51.038;6.992;2023-05-10T00:27:32;18.77;;;15.25;;
19842;SDS011;10082;51.038;6.992;2023-05-10T00:29:59;18.13;;;14.90;;
19842;SDS011;10082;51.038;6.992;2023-05-10T00:32:29;20.33;;;15.88;;
19842;SDS011;10082;51.038;6.992;2023-05-10T00:34:56;18.77;;;15.38;;
19842;SDS011;10082;51.038;6.992;2023-05-10T00:37:25;19.02;;;15.75;;
19842;SDS011;10082;51.038;6.992;2023-05-10T00:39:52;19.83;;;16.30;;
19842;SDS011;10082;51.038;6.992;2023-05-10T00:42:19;19.52;;;15.52;;
19842;SDS011;10082;51.038;6.992;2023-05-10T00:44:46;18.65;;;15.77;;
19842;SDS011;10082;51.038;6.992;2023-05-10T00:47:13;19.63;;;16.17;;
19842;SDS011;10082;51.038;6.992;2023-05-10T00:49:42;19.58;;;16.25;;
19842;SDS011;10082;51.038;6.992;2023-05-10T00:52:10;27.17;;;17.67;;
19842;SDS011;10082;51.038;6.992;2023-05-10T00:54:42;25.73;;;17.50;;
19842;SDS011;10082;51.038;6.992;2023-05-10T00:57:09;22.10;;;17.15;;
19842;SDS011;10082;51.038;6.992;2023-05-10T00:59:37;19.98;;;17.58;;
19842;SDS011;10082;51.038;6.992;2023-05-10T01:02:04;20.98;;;16.05;;
19842;SDS011;10082;51.038;6.992;2023-05-10T01:04:33;25.48;;;18.15;;
19842;SDS011;10082;51.038;6.992;2023-05-10T01:07:02;20.05;;;16.20;;
19842;SDS011;10082;51.038;6.992;2023-05-10T01:09:29;21.30;;;16.83;;
19842;SDS011;10082;51.038;6.992;2023-05-10T01:11:58;20.92;;;16.98;;
19842;SDS011;10082;51.038;6.992;2023-05-10T01:14:28;19.48;;;16.58;;
19842;SDS011;10082;51.038;6.992;2023-05-10T01:17:02;24.60;;;18.35;;
19842;SDS011;10082;51.038;6.992;2023-05-10T01:19:31;21.05;;;17.02;;
19842;SDS011;10082;51.038;6.992;2023-05-10T01:22:04;20.80;;;17.15;;
19842;SDS011;10082;51.038;6.992;2023-05-10T01:24:48;20.83;;;16.25;;
19842;SDS011;10082;51.038;6.992;2023-05-10T01:30:54;22.67;;;16.45;;
19842;SDS011;10082;51.038;6.992;2023-05-10T01:33:37;21.88;;;16.25;;
19842;SDS011;10082;51.038;6.992;2023-05-10T01:36:13;18.95;;;16.33;;
19842;SDS011;10082;51.038;6.992;2023-05-10T01:38:53;21.55;;;16.30;;
19842;SDS011;10082;51.038;6.992;2023-05-10T01:41:31;21.20;;;15.75;;
19842;SDS011;10082;51.038;6.992;2023-05-10T01:44:09;17.85;;;15.18;;
19842;SDS011;10082;51.038;6.992;2023-05-10T01:46:41;21.20;;;15.95;;
19842;SDS011;10082;51.038;6.992;2023-05-10T01:49:11;18.00;;;14.80;;
19842;SDS011;10082;51.038;6.992;2023-05-10T01:51:46;18.73;;;15.05;;
19842;SDS011;10082;51.038;6.992;2023-05-10T01:54:19;16.10;;;13.50;;
19842;SDS011;10082;51.038;6.992;2023-05-10T01:56:50;14.60;;;11.90;;
19842;SDS011;10082;51.038;6.992;2023-05-10T01:59:27;15.02;;;12.70;;
19842;SDS011;10082;51.038;6.992;2023-05-10T02:01:57;15.32;;;13.73;;
19842;SDS011;10082;51.038;6.992;2023-05-10T02:04:27;18.17;;;14.18;;
19842;SDS011;10082;51.038;6.992;2023-05-10T02:06:55;15.10;;;13.32;;
19842;SDS011;10082;51.038;6.992;2023-05-10T02:09:23;16.85;;;13.52;;
19842;SDS011;10082;51.038;6.992;2023-05-10T02:11:54;12.27;;;10.80;;
19842;SDS011;10082;51.038;6.992;2023-05-10T02:14:23;10.50;;;9.40;;
19842;SDS011;10082;51.038;6.992;2023-05-10T02:16:52;11.13;;;9.63;;
19842;SDS011;10082;51.038;6.992;2023-05-10T02:19:22;11.05;;;9.27;;
19842;SDS011;10082;51.038;6.992;2023-05-10T02:21:52;10.80;;;9.07;;
19842;SDS011;10082;51.038;6.992;2023-05-10T02:24:22;7.93;;;7.10;;
19842;SDS011;10082;51.038;6.992;2023-05-10T02:26:51;10.00;;;7.68;;
19842;SDS011;10082;51.038;6.992;2023-05-10T02:29:21;8.90;;;7.75;;
19842;SDS011;10082;51.038;6.992;2023-05-10T02:31:49;8.43;;;7.55;;
19842;SDS011;10082;51.038;6.992;2023-05-10T02:34:19;7.93;;;7.07;;
19842;SDS011;10082;51.038;6.992;2023-05-10T02:36:48;8.38;;;7.43;;
19842;SDS011;10082;51.038;6.992;2023-05-10T02:39:18;8.20;;;7.50;;
19842;SDS011;10082;51.038;6.992;2023-05-10T02:41:47;8.70;;;7.88;;
19842;SDS011;10082;51.038;6.992;2023-05-10T02:44:15;10.02;;;7.82;;
19842;SDS011;10082;51.038;6.992;2023-05-10T02:46:45;8.32;;;7.53;;
19842;SDS011;10082;51.038;6.992;2023-05-10T02:49:13;8.43;;;7.63;;
19842;SDS011;10082;51.038;6.992;2023-05-10T02:51:41;9.13;;;7.72;;
19842;SDS011;10082;51.038;6.992;2023-05-10T02:54:15;8.48;;;7.65;;
19842;SDS011;10082;51.038;6.992;2023-05-10T02:56:50;8.73;;;7.75;;
19842;SDS011;10082;51.038;6.992;2023-05-10T02:59:20;10.85;;;7.38;;
19842;SDS011;10082;51.038;6.992;2023-05-10T03:01:47;9.35;;;8.45;;
19842;SDS011;10082;51.038;6.992;2023-05-10T03:04:14;10.75;;;9.07;;
19842;SDS011;10082;51.038;6.992;2023-05-10T03:06:41;10.63;;;9.63;;
19842;SDS011;10082;51.038;6.992;2023-05-10T03:09:09;12.27;;;10.88;;
19842;SDS011;10082;51.038;6.992;2023-05-10T03:11:43;11.07;;;9.95;;
19842;SDS011;10082;51.038;6.992;2023-05-10T03:14:25;11.35;;;10.23;;
19842;SDS011;10082;51.038;6.992;2023-05-10T03:17:06;10.45;;;9.25;;
19842;SDS011;10082;51.038;6.992;2023-05-10T03:19:43;10.50;;;9.50;;
19842;SDS011;10082;51.038;6.992;2023-05-10T03:22:17;11.00;;;9.90;;
19842;SDS011;10082;51.038;6.992;2023-05-10T03:24:52;11.68;;;10.63;;
19842;SDS011;10082;51.038;6.992;2023-05-10T03:27:25;11.57;;;10.38;;
19842;SDS011;10082;51.038;6.992;2023-05-10T03:29:54;12.23;;;11.00;;
19842;SDS011;10082;51.038;6.992;2023-05-10T03:32:23;14.85;;;12.02;;
19842;SDS011;10082;51.038;6.992;2023-05-10T03:34:52;11.75;;;10.63;;
19842;SDS011;10082;51.038;6.992;2023-05-10T03:37:19;12.18;;;10.98;;
19842;SDS011;10082;51.038;6.992;2023-05-10T03:39:47;11.45;;;10.30;;
19842;SDS011;10082;51.038;6.992;2023-05-10T03:42:14;11.57;;;10.02;;
19842;SDS011;10082;51.038;6.992;2023-05-10T03:44:44;11.75;;;10.55;;
19842;SDS011;10082;51.038;6.992;2023-05-10T03:47:11;12.57;;;11.32;;
19842;SDS011;10082;51.038;6.992;2023-05-10T03:49:39;13.00;;;11.05;;
19842;SDS011;10082;51.038;6.992;2023-05-10T03:52:06;13.52;;;11.30;;
19842;SDS011;10082;51.038;6.992;2023-05-10T03:54:34;11.85;;;10.65;;
19842;SDS011;10082;51.038;6.992;2023-05-10T03:57:01;12.70;;;11.45;;
19842;SDS011;10082;51.038;6.992;2023-05-10T03:59:29;13.82;;;11.82;;
19842;SDS011;10082;51.038;6.992;2023-05-10T04:01:58;13.25;;;11.82;;
19842;SDS011;10082;51.038;6.992;2023-05-10T04:07:11;12.50;;;11.30;;
19842;SDS011;10082;51.038;6.992;2023-05-10T04:09:39;14.38;;;12.75;;
19842;SDS011;10082;51.038;6.992;2023-05-10T04:12:06;13.45;;;11.88;;
19842;SDS011;10082;51.038;6.992;2023-05-10T04:14:33;14.45;;;12.30;;
19842;SDS011;10082;51.038;6.992;2023-05-10T04:17:01;13.60;;;12.20;;
19842;SDS011;10082;51.038;6.992;2023-05-10T04:19:28;17.35;;;12.20;;
19842;SDS011;10082;51.038;6.992;2023-05-10T04:21:56;15.20;;;13.23;;
19842;SDS011;10082;51.038;6.992;2023-05-10T04:24:24;15.40;;;13.10;;
19842;SDS011;10082;51.038;6.992;2023-05-10T04:26:51;13.73;;;12.13;;
19842;SDS011;10082;51.038;6.992;2023-05-10T04:29:20;14.45;;;12.98;;
19842;SDS011;10082;51.038;6.992;2023-05-10T04:31:47;15.88;;;14.15;;
19842;SDS011;10082;51.038;6.992;2023-05-10T04:34:17;15.75;;;14.15;;
19842;SDS011;10082;51.038;6.992;2023-05-10T04:36:44;20.20;;;15.80;;
19842;SDS011;10082;51.038;6.992;2023-05-10T04:39:11;16.92;;;14.77;;
19842;SDS011;10082;51.038;6.992;2023-05-10T04:41:38;19.20;;;15.30;;
19842;SDS011;10082;51.038;6.992;2023-05-10T04:44:07;19.40;;;17.33;;
19842;SDS011;10082;51.038;6.992;2023-05-10T04:46:34;20.70;;;17.83;;
19842;SDS011;10082;51.038;6.992;2023-05-10T04:49:02;19.35;;;17.50;;
19842;SDS011;10082;51.038;6.992;2023-05-10T04:51:31;25.42;;;19.70;;
19842;SDS011;10082;51.038;6.992;2023-05-10T04:53:57;22.73;;;19.08;;
19842;SDS011;10082;51.038;6.992;2023-05-10T04:56:25;22.13;;;19.83;;
19842;SDS011;10082;51.038;6.992;2023-05-10T04:58:51;21.80;;;19.45;;
19842;SDS011;10082;51.038;6.992;2023-05-10T05:01:18;22.70;;;18.70;;
19842;SDS011;10082;51.038;6.992;2023-05-10T05:03:45;22.60;;;20.20;;
19842;SDS011;10082;51.038;6.992;2023-05-10T05:06:12;23.98;;;19.48;;
19842;SDS011;10082;51.038;6.992;2023-05-10T05:08:41;21.48;;;18.88;;
19842;SDS011;10082;51.038;6.992;2023-05-10T05:11:11;20.65;;;18.45;;
19842;SDS011;10082;51.038;6.992;2023-05-10T05:13:38;20.75;;;18.55;;
19842;SDS011;10082;51.038;6.992;2023-05-10T05:16:06;20.85;;;18.73;;
19842;SDS011;10082;51.038;6.992;2023-05-10T05:18:33;19.05;;;17.05;;
19842;SDS011;10082;51.038;6.992;2023-05-10T05:21:00;19.20;;;17.35;;
19842;SDS011;10082;51.038;6.992;2023-05-10T05:23:27;18.52;;;16.63;;
19842;SDS011;10082;51.038;6.992;2023-05-10T05:25:55;18.38;;;16.55;;
19842;SDS011;10082;51.038;6.992;2023-05-10T05:28:22;18.73;;;16.80;;
19842;SDS011;10082;51.038;6.992;2023-05-10T05:30:49;17.02;;;15.43;;
19842;SDS011;10082;51.038;6.992;2023-05-10T05:33:18;17.40;;;15.52;;
19842;SDS011;10082;51.038;6.992;2023-05-10T05:35:45;16.85;;;14.65;;
19842;SDS011;10082;51.038;6.992;2023-05-10T05:38:15;16.92;;;15.25;;
19842;SDS011;10082;51.038;6.992;2023-05-10T05:40:43;16.65;;;15.05;;
19842;SDS011;10082;51.038;6.992;2023-05-10T05:43:12;16.52;;;14.40;;
19842;SDS011;10082;51.038;6.992;2023-05-10T05:45:39;16.73;;;15.02;;
19842;SDS011;10082;51.038;6.992;2023-05-10T05:48:06;16.95;;;15.15;;
19842;SDS011;10082;51.038;6.992;2023-05-10T05:50:33;18.52;;;14.98;;
19842;SDS011;10082;51.038;6.992;2023-05-10T05:53:00;16.55;;;14.82;;
19842;SDS011;10082;51.038;6.992;2023-05-10T05:55:30;16.63;;;14.63;;
19842;SDS011;10082;51.038;6.992;2023-05-10T05:57:57;17.52;;;15.43;;
19842;SDS011;10082;51.038;6.992;2023-05-10T06:00:26;18.23;;;15.00;;
19842;SDS011;10082;51.038;6.992;2023-05-10T06:02:52;19.23;;;14.90;;
19842;SDS011;10082;51.038;6.992;2023-05-10T06:05:19;18.38;;;15.50;;
19842;SDS011;10082;51.038;6.992;2023-05-10T06:07:46;19.52;;;14.75;;
19842;SDS011;10082;51.038;6.992;2023-05-10T06:10:13;18.88;;;14.70;;
19842;SDS011;10082;51.038;6.992;2023-05-10T06:12:40;20.45;;;15.52;;
19842;SDS011;10082;51.038;6.992;2023-05-10T06:15:08;17.25;;;14.65;;
19842;SDS011;10082;51.038;6.992;2023-05-10T06:17:37;16.48;;;14.25;;
19842;SDS011;10082;51.038;6.992;2023-05-10T06:20:05;17.55;;;14.38;;
19842;SDS011;10082;51.038;6.992;2023-05-10T06:22:34;17.58;;;14.15;;
19842;SDS011;10082;51.038;6.992;2023-05-10T06:25:01;17.48;;;14.35;;
19842;SDS011;10082;51.038;6.992;2023-05-10T06:27:28;17.63;;;14.35;;
19842;SDS011;10082;51.038;6.992;2023-05-10T06:29:55;16.92;;;14.05;;
19842;SDS011;10082;51.038;6.992;2023-05-10T06:32:22;17.25;;;15.25;;
19842;SDS011;10082;51.038;6.992;2023-05-10T06:34:51;16.02;;;14.13;;
19842;SDS011;10082;51.038;6.992;2023-05-10T06:37:18;17.00;;;14.45;;
19842;SDS011;10082;51.038;6.992;2023-05-10T06:39:46;17.58;;;14.02;;
19842;SDS011;10082;51.038;6.992;2023-05-10T06:42:12;17.08;;;15.23;;
19842;SDS011;10082;51.038;6.992;2023-05-10T06:44:40;16.02;;;14.23;;
19842;SDS011;10082;51.038;6.992;2023-05-10T06:47:07;18.88;;;13.93;;
19842;SDS011;10082;51.038;6.992;2023-05-10T06:49:34;16.70;;;14.93;;
19842;SDS011;10082;51.038;6.992;2023-05-10T06:52:02;16.23;;;14.60;;
19842;SDS011;10082;51.038;6.992;2023-05-10T06:54:30;17.77;;;14.70;;
19842;SDS011;10082;51.038;6.992;2023-05-10T06:56:57;18.10;;;15.00;;
19842;SDS011;10082;51.038;6.992;2023-05-10T06:59:24;19.45;;;15.93;;
19842;SDS011;10082;51.038;6.992;2023-05-10T07:01:53;21.48;;;16.45;;
19842;SDS011;10082;51.038;6.992;2023-05-10T07:04:20;23.60;;;16.67;;
19842;SDS011;10082;51.038;6.992;2023-05-10T07:06:47;22.55;;;17.45;;
19842;SDS011;10082;51.038;6.992;2023-05-10T07:09:16;22.85;;;18.85;;
19842;SDS011;10082;51.038;6.992;2023-05-10T07:11:43;22.70;;;18.98;;
19842;SDS011;10082;51.038;6.992;2023-05-10T07:14:10;22.50;;;18.23;;
19842;SDS011;10082;51.038;6.992;2023-05-10T07:16:37;21.48;;;18.35;;
19842;SDS011;10082;51.038;6.992;2023-05-10T07:19:05;21.88;;;17.63;;
19842;SDS011;10082;51.038;6.992;2023-05-10T07:21:32;22.88;;;18.27;;
19842;SDS011;10082;51.038;6.992;2023-05-10T07:24:01;23.35;;;17.92;;
19842;SDS011;10082;51.038;6.992;2023-05-10T07:26:30;19.80;;;16.63;;
19842;SDS011;10082;51.038;6.992;2023-05-10T07:28:57;19.85;;;15.95;;
19842;SDS011;10082;51.038;6.992;2023-05-10T07:31:25;22.98;;;17.13;;
19842;SDS011;10082;51.038;6.992;2023-05-10T07:33:52;20.63;;;16.80;;
19842;SDS011;10082;51.038;6.992;2023-05-10T07:36:19;19.17;;;17.05;;
19842;SDS011;10082;51.038;6.992;2023-05-10T07:38:47;19.88;;;17.20;;
19842;SDS011;10082;51.038;6.992;2023-05-10T07:41:14;22.95;;;17.77;;
19842;SDS011;10082;51.038;6.992;2023-05-10T07:43:43;20.95;;;16.40;;
19842;SDS011;10082;51.038;6.992;2023-05-10T07:46:11;18.52;;;16.25;;
19842;SDS011;10082;51.038;6.992;2023-05-10T07:48:38;19.67;;;16.40;;
19842;SDS011;10082;51.038;6.992;2023-05-10T07:51:05;20.27;;;16.73;;
19842;SDS011;10082;51.038;6.992;2023-05-10T07:53:34;21.90;;;16.65;;
19842;SDS011;10082;51.038;6.992;2023-05-10T07:58:49;21.70;;;17.23;;
19842;SDS011;10082;51.038;6.992;2023-05-10T08:01:16;18.77;;;16.25;;
19842;SDS011;10082;51.038;6.992;2023-05-10T08:03:43;18.75;;;16.45;;
19842;SDS011;10082;51.038;6.992;2023-05-10T08:06:10;19.60;;;15.98;;
19842;SDS011;10082;51.038;6.992;2023-05-10T08:08:37;18.50;;;15.82;;
19842;SDS011;10082;51.038;6.992;2023-05-10T08:11:04;19.38;;;16.83;;
19842;SDS011;10082;51.038;6.992;2023-05-10T08:13:31;19.23;;;16.13;;
19842;SDS011;10082;51.038;6.992;2023-05-10T08:16:00;20.27;;;16.58;;
19842;SDS011;10082;51.038;6.992;2023-05-10T08:18:27;17.48;;;15.52;;
19842;SDS011;10082;51.038;6.992;2023-05-10T08:20:54;18.60;;;16.10;;
19842;SDS011;10082;51.038;6.992;2023-05-10T08:23:21;17.60;;;15.70;;
19842;SDS011;10082;51.038;6.992;2023-05-10T08:25:48;17.13;;;15.40;;
19842;SDS011;10082;51.038;6.992;2023-05-10T08:28:21;17.20;;;14.93;;
19842;SDS011;10082;51.038;6.992;2023-05-10T08:30:49;17.38;;;14.10;;
19842;SDS011;10082;51.038;6.992;2023-05-10T08:33:18;17.10;;;14.73;;
19842;SDS011;10082;51.038;6.992;2023-05-10T08:35:46;17.23;;;14.02;;
19842;SDS011;10082;51.038;6.992;2023-05-10T08:38:14;15.55;;;13.55;;
19842;SDS011;10082;51.038;6.992;2023-05-10T08:40:41;15.63;;;14.02;;
19842;SDS011;10082;51.038;6.992;2023-05-10T08:43:10;15.77;;;13.60;;
19842;SDS011;10082;51.038;6.992;2023-05-10T08:45:38;14.60;;;12.57;;
19842;SDS011;10082;51.038;6.992;2023-05-10T08:48:07;15.88;;;13.13;;
19842;SDS011;10082;51.038;6.992;2023-05-10T08:50:37;15.38;;;13.77;;
19842;SDS011;10082;51.038;6.992;2023-05-10T08:53:06;18.23;;;14.35;;
19842;SDS011;10082;51.038;6.992;2023-05-10T08:55:36;19.60;;;15.48;;
19842;SDS011;10082;51.038;6.992;2023-05-10T08:58:04;17.45;;;14.82;;
19842;SDS011;10082;51.038;6.992;2023-05-10T09:00:31;18.38;;;15.00;;
19842;SDS011;10082;51.038;6.992;2023-05-10T09:02:59;18.35;;;15.45;;
19842;SDS011;10082;51.038;6.992;2023-05-10T09:05:27;19.83;;;16.58;;
19842;SDS011;10082;51.038;6.992;2023-05-10T09:07:55;20.30;;;16.92;;
19842;SDS011;10082;51.038;6.992;2023-05-10T09:10:24;21.27;;;17.70;;
19842;SDS011;10082;51.038;6.992;2023-05-10T09:12:58;25.02;;;18.10;;
19842;SDS011;10082;51.038;6.992;2023-05-10T09:15:25;21.00;;;18.13;;
19842;SDS011;10082;51.038;6.992;2023-05-10T09:17:52;24.15;;;18.95;;
19842;SDS011;10082;51.038;6.992;2023-05-10T09:20:21;20.23;;;17.02;;
19842;SDS011;10082;51.038;6.992;2023-05-10T09:22:48;24.55;;;18.60;;
19842;SDS011;10082;51.038;6.992;2023-05-10T09:25:16;25.00;;;18.45;;
19842;SDS011;10082;51.038;6.992;2023-05-10T09:27:44;20.25;;;17.73;;
19842;SDS011;10082;51.038;6.992;2023-05-10T09:30:14;23.17;;;18.42;;
19842;SDS011;10082;51.038;6.992;2023-05-10T09:32:43;22.45;;;18.40;;
19842;SDS011;10082;51.038;6.992;2023-05-10T09:35:13;24.58;;;19.00;;
19842;SDS011;10082;51.038;6.992;2023-05-10T09:37:41;26.00;;;20.55;;
19842;SDS011;10082;51.038;6.992;2023-05-10T09:40:11;21.33;;;17.70;;
19842;SDS011;10082;51.038;6.992;2023-05-10T09:42:42;24.70;;;19.75;;
19842;SDS011;10082;51.038;6.992;2023-05-10T09:45:16;25.77;;;20.23;;
19842;SDS011;10082;51.038;6.992;2023-05-10T09:47:43;24.15;;;20.00;;
19842;SDS011;10082;51.038;6.992;2023-05-10T09:50:12;26.50;;;21.00;;
19842;SDS011;10082;51.038;6.992;2023-05-10T09:52:46;26.23;;;20.27;;
19842;SDS011;10082;51.038;6.992;2023-05-10T09:55:17;27.25;;;20.60;;
19842;SDS011;10082;51.038;6.992;2023-05-10T09:57:46;24.40;;;19.95;;
19842;SDS011;10082;51.038;6.992;2023-05-10T10:00:18;22.23;;;19.38;;
19842;SDS011;10082;51.038;6.992;2023-05-10T10:02:46;23.25;;;19.10;;
19842;SDS011;10082;51.038;6.992;2023-05-10T10:05:14;24.40;;;20.73;;
19842;SDS011;10082;51.038;6.992;2023-05-10T10:07:41;25.45;;;20.25;;
19842;SDS011;10082;51.038;6.992;2023-05-10T10:10:09;24.65;;;19.92;;
19842;SDS011;10082;51.038;6.992;2023-05-10T10:12:38;22.38;;;19.35;;
19842;SDS011;10082;51.038;6.992;2023-05-10T10:15:08;21.98;;;18.75;;
19842;SDS011;10082;51.038;6.992;2023-05-10T10:17:37;23.02;;;18.88;;
19842;SDS011;10082;51.038;6.992;2023-05-10T10:20:05;20.95;;;18.42;;
19842;SDS011;10082;51.038;6.992;2023-05-10T10:22:34;18.73;;;16.70;;
19842;SDS011;10082;51.038;6.992;2023-05-10T10:25:00;21.55;;;17.65;;
19842;SDS011;10082;51.038;6.992;2023-05-10T10:27:28;19.98;;;17.45;;
19842;SDS011;10082;51.038;6.992;2023-05-10T10:30:09;20.02;;;17.33;;
19842;SDS011;10082;51.038;6.992;2023-05-10T10:32:49;19.05;;;16.92;;
19842;SDS011;10082;51.038;6.992;2023-05-10T10:35:28;19.60;;;17.00;;
19842;SDS011;10082;51.038;6.992;2023-05-10T10:38:03;20.33;;;17.00;;
19842;SDS011;10082;51.038;6.992;2023-05-10T10:40:30;16.27;;;14.50;;
19842;SDS011;10082;51.038;6.992;2023-05-10T10:42:58;17.05;;;14.52;;
19842;SDS011;10082;51.038;6.992;2023-05-10T10:48:47;16.90;;;15.10;;
19842;SDS011;10082;51.038;6.992;2023-05-10T10:51:16;17.02;;;15.02;;
19842;SDS011;10082;51.038;6.992;2023-05-10T10:53:43;16.95;;;15.18;;
19842;SDS011;10082;51.038;6.992;2023-05-10T10:56:11;20.90;;;16.35;;
19842;SDS011;10082;51.038;6.992;2023-05-10T10:58:40;17.27;;;15.52;;
19842;SDS011;10082;51.038;6.992;2023-05-10T11:01:09;19.35;;;16.55;;
19842;SDS011;10082;51.038;6.992;2023-05-10T11:03:39;18.65;;;16.65;;
19842;SDS011;10082;51.038;6.992;2023-05-10T11:06:06;19.15;;;17.15;;
19842;SDS011;10082;51.038;6.992;2023-05-10T11:08:34;18.63;;;16.63;;
19842;SDS011;10082;51.038;6.992;2023-05-10T11:11:07;17.50;;;15.73;;
19842;SDS011;10082;51.038;6.992;2023-05-10T11:13:38;15.35;;;13.85;;
19842;SDS011;10082;51.038;6.992;2023-05-10T11:16:10;15.65;;;13.85;;
19842;SDS011;10082;51.038;6.992;2023-05-10T11:18:40;17.23;;;15.52;;
19842;SDS011;10082;51.038;6.992;2023-05-10T11:21:18;13.95;;;12.60;;
19842;SDS011;10082;51.038;6.992;2023-05-10T11:23:49;14.60;;;13.15;;
19842;SDS011;10082;51.038;6.992;2023-05-10T11:26:19;15.32;;;13.73;;
19842;SDS011;10082;51.038;6.992;2023-05-10T11:28:51;14.13;;;12.63;;
19842;SDS011;10082;51.038;6.992;2023-05-10T11:31:21;14.80;;;13.18;;
19842;SDS011;10082;51.038;6.992;2023-05-10T11:33:51;13.18;;;11.88;;
19842;SDS011;10082;51.038;6.992;2023-05-10T11:36:19;13.40;;;11.00;;
19842;SDS011;10082;51.038;6.992;2023-05-10T11:38:48;11.85;;;10.65;;
19842;SDS011;10082;51.038;6.992;2023-05-10T11:41:15;11.18;;;10.07;;
19842;SDS011;10082;51.038;6.992;2023-05-10T11:43:46;10.10;;;9.13;;
19842;SDS011;10082;51.038;6.992;2023-05-10T11:46:14;10.80;;;9.77;;
19842;SDS011;10082;51.038;6.992;2023-05-10T11:48:41;10.15;;;9.25;;
19842;SDS011;10082;51.038;6.992;2023-05-10T11:51:11;9.85;;;8.85;;
19842;SDS011;10082;51.038;6.992;2023-05-10T11:53:38;10.27;;;9.18;;
19842;SDS011;10082;51.038;6.992;2023-05-10T11:56:05;11.13;;;9.80;;
19842;SDS011;10082;51.038;6.992;2023-05-10T11:58:33;11.57;;;10.48;;
19842;SDS011;10082;51.038;6.992;2023-05-10T12:01:01;9.57;;;8.68;;
19842;SDS011;10082;51.038;6.992;2023-05-10T12:03:29;10.93;;;9.70;;
19842;SDS011;10082;51.038;6.992;2023-05-10T12:05:57;8.90;;;8.10;;
19842;SDS011;10082;51.038;6.992;2023-05-10T12:08:27;7.10;;;6.47;;
19842;SDS011;10082;51.038;6.992;2023-05-10T12:11:03;5.82;;;5.35;;
19842;SDS011;10082;51.038;6.992;2023-05-10T12:13:31;6.68;;;5.35;;
19842;SDS011;10082;51.038;6.992;2023-05-10T12:15:59;5.07;;;4.40;;
19842;SDS011;10082;51.038;6.992;2023-05-10T12:18:26;5.00;;;4.60;;
19842;SDS011;10082;51.038;6.992;2023-05-10T12:20:53;5.00;;;4.60;;
19842;SDS011;10082;51.038;6.992;2023-05-10T12:23:20;6.03;;;4.30;;
19842;SDS011;10082;51.038;6.992;2023-05-10T12:25:49;5.40;;;4.93;;
19842;SDS011;10082;51.038;6.992;2023-05-10T12:28:19;7.05;;;5.45;;
19842;SDS011;10082;51.038;6.992;2023-05-10T12:30:46;5.45;;;5.00;;
19842;SDS011;10082;51.038;6.992;2023-05-10T12:33:14;4.38;;;3.97;;
19842;SDS011;10082;51.038;6.992;2023-05-10T12:35:45;6.07;;;4.57;;
19842;SDS011;10082;51.038;6.992;2023-05-10T12:38:26;4.25;;;3.83;;
19842;SDS011;10082;51.038;6.992;2023-05-10T12:40:58;4.03;;;3.40;;
19842;SDS011;10082;51.038;6.992;2023-05-10T12:43:25;3.67;;;3.00;;
19842;SDS011;10082;51.038;6.992;2023-05-10T12:45:53;3.28;;;2.97;;
19842;SDS011;10082;51.038;6.992;2023-05-10T12:48:20;3.45;;;3.15;;
19842;SDS011;10082;51.038;6.992;2023-05-10T12:50:47;3.10;;;2.90;;
19842;SDS011;10082;51.038;6.992;2023-05-10T12:53:15;3.20;;;2.90;;
19842;SDS011;10082;51.038;6.992;2023-05-10T12:55:43;3.53;;;2.60;;
19842;SDS011;10082;51.038;6.992;2023-05-10T12:58:11;3.00;;;2.70;;
19842;SDS011;10082;51.038;6.992;2023-05-10T13:00:38;3.55;;;3.10;;
19842;SDS011;10082;51.038;6.992;2023-05-10T13:03:06;3.88;;;3.20;;
19842;SDS011;10082;51.038;6.992;2023-05-10T13:05:34;3.15;;;2.85;;
19842;SDS011;10082;51.038;6.992;2023-05-10T13:08:01;3.65;;;3.35;;
19842;SDS011;10082;51.038;6.992;2023-05-10T13:10:29;4.88;;;3.90;;
19842;SDS011;10082;51.038;6.992;2023-05-10T13:12:57;4.22;;;3.90;;
19842;SDS011;10082;51.038;6.992;2023-05-10T13:15:26;5.20;;;3.78;;
19842;SDS011;10082;51.038;6.992;2023-05-10T13:17:54;4.15;;;3.75;;
19842;SDS011;10082;51.038;6.992;2023-05-10T13:20:21;3.25;;;3.05;;
19842;SDS011;10082;51.038;6.992;2023-05-10T13:22:48;2.60;;;2.40;;
19842;SDS011;10082;51.038;6.992;2023-05-10T13:25:16;3.65;;;2.67;;
19842;SDS011;10082;51.038;6.992;2023-05-10T13:27:43;2.63;;;2.42;;
19842;SDS011;10082;51.038;6.992;2023-05-10T13:30:10;2.88;;;2.67;;
19842;SDS011;10082;51.038;6.992;2023-05-10T13:32:39;3.35;;;2.65;;
19842;SDS011;10082;51.038;6.992;2023-05-10T13:35:06;3.20;;;2.97;;
19842;SDS011;10082;51.038;6.992;2023-05-10T13:37:33;2.80;;;2.60;;
19842;SDS011;10082;51.038;6.992;2023-05-10T13:40:02;3.33;;;2.75;;
19842;SDS011;10082;51.038;6.992;2023-05-10T13:42:30;2.60;;;2.40;;
19842;SDS011;10082;51.038;6.992;2023-05-10T13:44:58;2.60;;;2.40;;
19842;SDS011;10082;51.038;6.992;2023-05-10T13:47:26;2.90;;;2.70;;
19842;SDS011;10082;51.038;6.992;2023-05-10T13:49:54;2.47;;;2.28;;
19842;SDS011;10082;51.038;6.992;2023-05-10T13:52:22;2.13;;;1.92;;
19842;SDS011;10082;51.038;6.992;2023-05-10T13:54:50;2.40;;;2.20;;
19842;SDS011;10082;51.038;6.992;2023-05-10T13:57:20;2.33;;;2.13;;
19842;SDS011;10082;51.038;6.992;2023-05-10T13:59:47;2.08;;;1.98;;
19842;SDS011;10082;51.038;6.992;2023-05-10T14:02:14;3.13;;;2.10;;
19842;SDS011;10082;51.038;6.992;2023-05-10T14:04:42;2.92;;;2.72;;
19842;SDS011;10082;51.038;6.992;2023-05-10T14:07:11;3.28;;;2.75;;
19842;SDS011;10082;51.038;6.992;2023-05-10T14:09:38;2.50;;;2.30;;
19842;SDS011;10082;51.038;6.992;2023-05-10T14:12:10;3.33;;;3.03;;
19842;SDS011;10082;51.038;6.992;2023-05-10T14:14:37;2.80;;;2.60;;
19842;SDS011;10082;51.038;6.992;2023-05-10T14:17:05;3.20;;;2.85;;
19842;SDS011;10082;51.038;6.992;2023-05-10T14:19:32;2.75;;;2.50;;
19842;SDS011;10082;51.038;6.992;2023-05-10T14:21:59;5.32;;;4.43;;
19842;SDS011;10082;51.038;6.992;2023-05-10T14:24:28;3.63;;;2.90;;
19842;SDS011;10082;51.038;6.992;2023-05-10T14:26:56;5.25;;;3.30;;
19842;SDS011;10082;51.038;6.992;2023-05-10T14:29:24;4.10;;;3.55;;
19842;SDS011;10082;51.038;6.992;2023-05-10T14:31:51;7.43;;;6.72;;
19842;SDS011;10082;51.038;6.992;2023-05-10T14:34:18;8.23;;;7.45;;
19842;SDS011;10082;51.038;6.992;2023-05-10T14:36:46;7.65;;;6.88;;
19842;SDS011;10082;51.038;6.992;2023-05-10T14:39:13;10.70;;;9.52;;
19842;SDS011;10082;51.038;6.992;2023-05-10T14:41:41;14.38;;;8.98;;
19842;SDS011;10082;51.038;6.992;2023-05-10T14:44:09;9.23;;;8.18;;
19842;SDS011;10082;51.038;6.992;2023-05-10T14:46:36;11.43;;;9.10;;
19842;SDS011;10082;51.038;6.992;2023-05-10T14:49:03;9.82;;;8.93;;